Time;durP1;ratioP1;P1;durP2;ratioP2;P2;SDS_P1;SDS_P2;PMS_P1;PMS_P2;Temp;Humidity;BMP_temperature;BMP_pressure;BME280_temperature;BME280_humidity;BME280_pressure;Samples;Min_cycle;Max_cycle;Signal;HPM_P1;HPM_P2
2021/12/28 00:03:34;;;;;;;17.85;15.98;;;;;;;8.43;92.68;98580.47;10245411;29;20505;-64
2021/12/28 00:08:36;;;;;;;15.68;14.07;;;;;;;8.43;92.81;98581.31;10247095;29;20069;-64
2021/12/28 00:13:39;;;;;;;14.57;13.20;;;;;;;8.45;92.39;98579.38;10246251;28;20134;-63
2021/12/28 00:18:44;;;;;;;15.98;14.38;;;;;;;8.47;92.11;98576.59;10247275;29;20743;-64
2021/12/28 00:23:46;;;;;;;16.60;14.82;;;;;;;8.51;92.08;98569.16;10246901;29;20086;-63
2021/12/28 00:28:47;;;;;;;17.20;15.23;;;;;;;8.51;92.52;98574.44;10244497;28;20110;-63
2021/12/28 00:33:49;;;;;;;15.32;13.73;;;;;;;8.44;92.49;98572.41;10244862;29;20047;-64
2021/12/28 00:38:50;;;;;;;17.42;15.63;;;;;;;8.45;92.39;98587.34;10227427;29;20051;-64
2021/12/28 00:43:52;;;;;;;15.02;13.38;;;;;;;8.48;92.33;98580.88;10246351;29;20146;-65
2021/12/28 00:48:54;;;;;;;15.25;13.57;;;;;;;8.51;92.00;98582.41;10244459;29;20113;-65
2021/12/28 00:53:56;;;;;;;14.95;13.40;;;;;;;8.54;91.66;98579.44;10247496;29;20114;-63
2021/12/28 00:58:57;;;;;;;18.60;13.98;;;;;;;8.54;91.51;98560.88;10246223;29;20054;-64
2021/12/28 01:03:59;;;;;;;17.25;14.70;;;;;;;8.54;91.46;98550.28;10244209;29;20051;-63
2021/12/28 01:09:01;;;;;;;15.20;13.60;;;;;;;8.53;91.72;98552.09;10243463;29;20495;-63
2021/12/28 01:14:02;;;;;;;16.00;14.20;;;;;;;8.50;91.51;98549.75;10244829;28;20051;-63
2021/12/28 01:19:05;;;;;;;16.75;14.98;;;;;;;8.49;91.95;98538.31;10245141;29;20150;-63
2021/12/28 01:24:06;;;;;;;18.35;15.55;;;;;;;8.50;91.76;98539.16;10241124;29;20086;-64
2021/12/28 01:29:08;;;;;;;16.25;14.23;;;;;;;8.47;91.80;98537.63;10242797;29;20051;-63
2021/12/28 01:34:09;;;;;;;15.23;12.88;;;;;;;8.47;91.87;98534.97;10244463;29;20481;-64
2021/12/28 01:39:11;;;;;;;15.80;14.07;;;;;;;8.48;92.09;98541.97;10242341;29;20082;-64
2021/12/28 01:44:13;;;;;;;14.15;12.60;;;;;;;8.45;91.70;98526.34;10242465;28;20581;-65
2021/12/28 01:49:14;;;;;;;16.20;13.23;;;;;;;8.52;91.83;98520.44;10241376;29;20158;-65
2021/12/28 01:54:16;;;;;;;15.95;14.25;;;;;;;8.51;91.92;98524.88;10242294;29;20055;-64
2021/12/28 01:59:20;;;;;;;15.32;12.65;;;;;;;8.54;91.76;98513.16;10239972;29;20138;-65
2021/12/28 02:04:26;;;;;;;14.48;12.40;;;;;;;8.53;91.96;98498.22;10225760;29;20047;-64
2021/12/28 02:09:27;;;;;;;15.25;13.15;;;;;;;8.49;91.78;98495.06;10243897;29;20556;-63
2021/12/28 02:14:29;;;;;;;14.20;12.75;;;;;;;8.53;91.53;98495.56;10241620;28;20138;-64
2021/12/28 02:19:30;;;;;;;13.68;12.27;;;;;;;8.53;91.54;98490.25;10241083;29;20055;-64
2021/12/28 02:24:32;;;;;;;13.60;12.15;;;;;;;8.56;91.56;98487.34;10241994;29;20083;-64
2021/12/28 02:29:33;;;;;;;15.35;13.75;;;;;;;8.56;91.66;98482.03;10241623;29;20126;-64
2021/12/28 02:34:34;;;;;;;16.77;14.35;;;;;;;8.57;91.45;98476.56;10242191;29;20122;-64
2021/12/28 02:39:36;;;;;;;14.27;12.73;;;;;;;8.60;91.46;98470.09;10241739;29;20090;-63
2021/12/28 02:44:37;;;;;;;13.02;11.73;;;;;;;8.58;91.07;98456.19;10242845;29;20043;-64
2021/12/28 02:49:39;;;;;;;14.02;12.23;;;;;;;8.55;91.21;98449.34;10239840;29;20138;-64
2021/12/28 02:54:40;;;;;;;13.57;12.18;;;;;;;8.58;91.11;98456.19;10241277;28;20070;-64
2021/12/28 02:59:47;;;;;;;11.82;10.55;;;;;;;8.58;91.39;98434.97;10239863;29;20078;-64
2021/12/28 03:04:49;;;;;;;13.82;10.13;;;;;;;8.58;91.60;98434.97;10240604;29;20127;-64
2021/12/28 03:09:50;;;;;;;11.23;9.55;;;;;;;8.57;91.88;98439.44;10245199;29;20083;-64
2021/12/28 03:14:51;;;;;;;14.80;9.48;;;;;;;8.59;92.05;98432.16;10242441;28;20122;-63
2021/12/28 03:19:53;;;;;;;9.95;8.45;;;;;;;8.61;92.05;98424.84;10242932;29;20053;-64
2021/12/28 03:24:54;;;;;;;9.95;7.97;;;;;;;8.62;91.99;98404.50;10238730;29;20078;-64
2021/12/28 03:29:56;;;;;;;12.05;7.30;;;;;;;8.67;92.73;98407.50;10240054;29;20109;-64
2021/12/28 03:34:57;;;;;;;10.02;6.63;;;;;;;8.71;92.51;98403.53;10238189;29;20122;-63
2021/12/28 03:39:59;;;;;;;10.05;6.40;;;;;;;8.73;92.87;98385.63;10239697;29;20079;-64
2021/12/28 03:45:01;;;;;;;10.40;6.85;;;;;;;8.78;92.71;98386.03;10240944;29;20544;-63
2021/12/28 03:50:06;;;;;;;12.07;6.72;;;;;;;8.69;92.99;98357.75;10239861;29;20142;-63
2021/12/28 03:55:09;;;;;;;;;;;;;;;8.82;93.05;98371.44;10240262;28;20475;-63
2021/12/28 04:00:12;;;;;;;9.35;5.68;;;;;;;8.79;93.47;98369.09;10240218;29;19949;-64
2021/12/28 04:05:16;;;;;;;10.77;6.20;;;;;;;8.81;93.47;98367.13;10240907;28;20686;-64
2021/12/28 04:10:19;;;;;;;9.48;5.10;;;;;;;8.81;93.69;98359.16;10243531;29;20082;-64
2021/12/28 04:15:20;;;;;;;11.48;5.38;;;;;;;8.85;93.48;98357.84;10247443;28;20075;-64
2021/12/28 04:20:23;;;;;;;10.90;4.80;;;;;;;8.90;92.90;98365.31;10245039;29;20138;-64
2021/12/28 04:25:24;;;;;;;12.88;4.47;;;;;;;8.90;92.88;98348.56;10245312;29;20138;-64
2021/12/28 04:30:26;;;;;;;9.85;4.38;;;;;;;8.91;93.35;98350.25;10244663;29;20695;-64
2021/12/28 04:35:27;;;;;;;8.27;3.75;;;;;;;8.97;92.78;98354.91;10246523;29;20134;-63
2021/12/28 04:40:29;;;;;;;9.73;3.90;;;;;;;9.00;92.95;98349.28;10246096;29;20058;-64
2021/12/28 04:45:31;;;;;;;10.88;3.83;;;;;;;8.97;93.53;98339.81;10243919;29;20048;-62
2021/12/28 04:50:37;;;;;;;8.88;3.47;;;;;;;9.04;93.33;98350.63;10244746;29;20058;-64
2021/12/28 04:55:44;;;;;;;7.53;3.45;;;;;;;9.03;93.61;98349.78;10245486;29;20071;-64
2021/12/28 05:00:47;;;;;;;12.25;3.92;;;;;;;9.07;93.74;98354.78;10243664;29;20121;-63
2021/12/28 05:05:51;;;;;;;7.90;3.63;;;;;;;9.04;93.81;98355.94;10247282;29;20051;-64
2021/12/28 05:10:52;;;;;;;14.30;3.80;;;;;;;9.00;94.14;98354.59;10249100;29;20055;-63
2021/12/28 05:15:54;;;;;;;9.57;4.00;;;;;;;8.94;94.55;98356.06;10246135;28;20174;-63
2021/12/28 05:20:55;;;;;;;10.85;3.42;;;;;;;8.97;94.90;98354.91;10255602;29;20052;-63
2021/12/28 05:25:56;;;;;;;8.70;3.38;;;;;;;8.98;94.92;98351.28;10234256;28;20136;-64
2021/12/28 05:30:58;;;;;;;12.73;3.05;;;;;;;8.97;94.87;98339.81;10243533;28;20209;-63
2021/12/28 05:36:00;;;;;;;7.90;2.88;;;;;;;9.04;94.80;98345.34;10234087;29;20541;-64
2021/12/28 05:41:03;;;;;;;7.93;2.97;;;;;;;9.09;94.54;98339.53;10242311;28;20048;-62
2021/12/28 05:46:04;;;;;;;10.02;3.00;;;;;;;9.10;94.64;98333.25;10235033;29;20105;-64
2021/12/28 05:51:05;;;;;;;8.35;3.50;;;;;;;9.09;94.39;98335.06;10234378;29;20051;-63
2021/12/28 05:56:07;;;;;;;7.10;3.13;;;;;;;9.03;94.76;98319.78;10233234;28;20130;-63
2021/12/28 06:01:09;;;;;;;8.82;3.33;;;;;;;9.03;95.05;98323.25;10231988;29;20130;-63
2021/12/28 06:06:10;;;;;;;6.97;3.10;;;;;;;9.03;95.26;98306.50;10236814;29;20098;-63
2021/12/28 06:11:13;;;;;;;5.18;2.50;;;;;;;8.98;95.63;98309.66;10233684;29;20119;-64
2021/12/28 06:16:17;;;;;;;7.78;2.75;;;;;;;8.97;95.30;98297.34;10239179;28;20086;-64
2021/12/28 06:21:19;;;;;;;9.57;3.47;;;;;;;8.85;95.47;98275.59;10236916;29;20715;-65
2021/12/28 06:26:20;;;;;;;6.28;2.17;;;;;;;8.87;95.84;98283.38;10232920;29;20128;-63
2021/12/28 06:31:21;;;;;;;5.93;2.08;;;;;;;8.77;96.09;98275.56;10232128;28;20090;-63
2021/12/28 06:36:23;;;;;;;10.65;2.60;;;;;;;8.79;96.19;98278.06;10210772;29;20056;-64
2021/12/28 06:41:25;;;;;;;8.32;3.17;;;;;;;8.79;96.26;98262.97;10228195;28;20145;-62
2021/12/28 06:46:26;;;;;;;7.22;2.80;;;;;;;8.76;96.25;98263.28;10224656;28;20142;-65
2021/12/28 06:51:28;;;;;;;6.35;3.00;;;;;;;8.77;96.12;98264.97;10222362;28;20050;-65
2021/12/28 06:56:29;;;;;;;4.68;2.40;;;;;;;8.63;96.15;98260.25;10217196;28;20695;-62
2021/12/28 07:01:30;;;;;;;7.65;2.63;;;;;;;8.64;96.21;98265.41;10210031;28;20900;-64
2021/12/28 07:06:32;;;;;;;6.07;2.55;;;;;;;8.64;96.12;98264.59;10204387;28;20130;-63
2021/12/28 07:11:34;;;;;;;6.93;2.22;;;;;;;8.65;96.66;98256.47;10215048;28;20126;-64
2021/12/28 07:16:35;;;;;;;4.85;2.53;;;;;;;8.70;96.11;98258.63;10192847;28;20058;-64
2021/12/28 07:21:39;;;;;;;6.70;2.40;;;;;;;8.66;95.94;98254.63;10204466;28;20731;-65
2021/12/28 07:26:40;;;;;;;5.47;2.40;;;;;;;8.68;95.84;98247.38;10206398;28;20531;-64
2021/12/28 07:31:42;;;;;;;5.30;2.38;;;;;;;8.67;95.79;98258.97;10204579;28;20044;-64
2021/12/28 07:36:44;;;;;;;8.23;2.88;;;;;;;8.73;95.63;98252.19;10190965;28;20054;-63
2021/12/28 07:41:45;;;;;;;8.18;2.58;;;;;;;8.74;95.62;98244.06;10210434;28;20047;-63
2021/12/28 07:46:47;;;;;;;17.50;3.25;;;;;;;8.67;95.68;98237.75;10211024;28;20059;-64
2021/12/28 07:51:49;;;;;;;6.35;2.17;;;;;;;8.64;95.67;98232.75;10213171;28;20066;-63
2021/12/28 07:56:50;;;;;;;4.70;2.00;;;;;;;8.68;96.02;98234.09;10208012;28;20049;-62
2021/12/28 08:01:52;;;;;;;5.80;2.88;;;;;;;8.71;95.62;98239.09;10219844;28;20054;-63
2021/12/28 08:06:55;;;;;;;6.25;2.42;;;;;;;8.76;95.17;98244.72;10207048;28;20055;-65
2021/12/28 08:11:57;;;;;;;5.30;2.60;;;;;;;8.73;94.52;98247.69;10202741;28;20057;-64
2021/12/28 08:16:58;;;;;;;5.40;2.08;;;;;;;8.71;94.84;98243.53;10208689;28;20055;-64
2021/12/28 08:22:00;;;;;;;5.18;2.42;;;;;;;8.61;95.73;98241.84;10210778;28;20057;-64
2021/12/28 08:27:01;;;;;;;6.22;1.70;;;;;;;8.73;95.71;98246.88;10190327;28;20057;-62
2021/12/28 08:32:03;;;;;;;5.47;1.90;;;;;;;8.68;95.67;98239.41;10209510;28;20062;-63
2021/12/28 08:37:05;;;;;;;8.05;2.38;;;;;;;8.60;96.46;98231.41;10207043;28;20075;-64
2021/12/28 08:42:06;;;;;;;6.55;2.30;;;;;;;8.69;96.20;98225.13;10206663;28;20051;-63
2021/12/28 08:47:08;;;;;;;4.57;2.10;;;;;;;8.71;96.03;98224.97;10204721;28;20138;-63
2021/12/28 08:52:10;;;;;;;3.42;1.75;;;;;;;8.69;96.29;98229.63;10210686;28;20501;-63
2021/12/28 08:57:12;;;;;;;5.60;1.80;;;;;;;8.74;96.26;98222.03;10203357;28;20059;-64
2021/12/28 09:02:13;;;;;;;5.75;2.17;;;;;;;8.79;96.13;98230.31;10240294;28;20445;-63
2021/12/28 09:07:16;;;;;;;5.13;2.00;;;;;;;8.78;96.50;98229.50;10202115;28;20093;-63
2021/12/28 09:12:18;;;;;;;3.08;1.95;;;;;;;8.78;96.40;98231.31;10206312;28;20063;-61
2021/12/28 09:17:19;;;;;;;3.78;1.50;;;;;;;8.81;96.35;98229.16;10187616;28;20056;-64
2021/12/28 09:22:21;;;;;;;4.05;1.58;;;;;;;8.80;96.05;98232.81;10204202;28;20061;-63
2021/12/28 09:27:22;;;;;;;4.15;1.58;;;;;;;8.91;95.56;98229.00;10201863;28;20141;-63
2021/12/28 09:32:24;;;;;;;3.58;1.55;;;;;;;8.91;95.53;98239.63;10208659;28;20087;-63
2021/12/28 09:37:25;;;;;;;3.55;1.60;;;;;;;8.92;95.42;98245.78;10201877;28;20051;-65
2021/12/28 09:42:27;;;;;;;4.45;1.92;;;;;;;8.96;95.42;98231.19;10208157;28;20067;-63
2021/12/28 09:47:28;;;;;;;2.53;1.63;;;;;;;9.05;95.73;98224.88;10212485;28;20302;-66
2021/12/28 09:52:32;;;;;;;2.40;1.73;;;;;;;9.12;95.31;98236.50;10203326;28;20142;-63
2021/12/28 09:57:34;;;;;;;4.60;2.50;;;;;;;9.12;96.83;98222.44;10187514;28;20043;-64
2021/12/28 10:02:36;;;;;;;3.28;1.60;;;;;;;9.28;96.86;98237.56;10201392;28;20297;-64
2021/12/28 10:07:44;;;;;;;1.38;1.27;;;;;;;9.34;98.11;98234.25;10190761;28;20051;-64
2021/12/28 10:12:52;;;;;;;2.25;1.98;;;;;;;9.25;100.00;98227.25;10205425;28;20055;-64
2021/12/28 10:17:56;;;;;;;1.95;1.70;;;;;;;9.27;100.00;98225.25;10203675;28;20047;-63
2021/12/28 10:23:02;;;;;;;2.08;1.88;;;;;;;9.27;100.00;98212.00;10202639;28;20061;-64
2021/12/28 10:28:06;;;;;;;2.38;2.05;;;;;;;9.32;100.00;98229.09;10204077;28;20059;-66
2021/12/28 10:33:13;;;;;;;3.00;2.35;;;;;;;9.40;100.00;98211.47;10188663;28;20707;-63
2021/12/28 10:38:18;;;;;;;2.55;2.28;;;;;;;9.42;100.00;98220.94;10198800;28;20055;-63
2021/12/28 10:43:22;;;;;;;2.78;2.50;;;;;;;9.38;100.00;98227.56;10201527;28;20055;-64
2021/12/28 10:48:28;;;;;;;2.80;2.60;;;;;;;9.38;100.00;98215.16;10192520;28;20234;-65
2021/12/28 10:53:56;;;;;;;3.80;3.45;;;;;;;9.43;100.00;98196.06;10202630;28;20580;-64
2021/12/28 10:59:01;;;;;;;3.53;2.75;;;;;;;9.40;100.00;98200.84;10201695;28;20047;-65
2021/12/28 11:04:09;;;;;;;;;;;;;;;9.50;100.00;98213.00;10189937;28;20043;-64
2021/12/28 11:09:15;;;;;;;3.40;3.08;;;;;;;9.55;100.00;98199.22;10203327;28;20381;-63
2021/12/28 11:14:25;;;;;;;4.05;3.35;;;;;;;9.64;100.00;98192.88;10200966;28;20425;-64
2021/12/28 11:19:29;;;;;;;3.40;3.10;;;;;;;9.96;100.00;98174.41;10198762;28;20062;-63
2021/12/28 11:24:39;;;;;;;3.93;3.30;;;;;;;10.23;98.45;98181.13;10196577;28;20051;-64
2021/12/28 11:29:41;;;;;;;5.25;2.85;;;;;;;9.97;99.47;98199.97;10199523;28;20182;-63
2021/12/28 11:34:43;;;;;;;3.03;2.83;;;;;;;9.88;100.00;98173.41;10203692;28;20059;-62
2021/12/28 11:39:51;;;;;;;2.92;2.63;;;;;;;9.78;100.00;98161.31;10182327;28;20047;-65
2021/12/28 11:44:53;;;;;;;2.83;2.63;;;;;;;9.89;100.00;98148.50;10213663;28;20168;-64
2021/12/28 11:49:57;;;;;;;2.95;2.65;;;;;;;9.95;100.00;98146.97;10197432;28;20145;-68
2021/12/28 11:55:00;;;;;;;2.75;2.55;;;;;;;9.97;100.00;98144.16;10200759;28;20055;-65
2021/12/28 12:00:10;;;;;;;4.55;3.17;;;;;;;9.95;100.00;98140.84;10200712;28;20065;-62
2021/12/28 12:05:26;;;;;;;7.57;3.55;;;;;;;9.98;100.00;98146.63;10200691;28;20052;-63
2021/12/28 12:10:30;;;;;;;3.88;3.58;;;;;;;10.01;100.00;98134.84;10200033;28;20497;-64
2021/12/28 12:15:39;;;;;;;4.05;3.20;;;;;;;10.07;100.00;98112.88;10201003;28;20131;-64
2021/12/28 12:20:48;;;;;;;3.58;3.28;;;;;;;10.22;100.00;98105.84;10201115;28;20070;-63
2021/12/28 12:25:59;;;;;;;3.47;3.25;;;;;;;10.16;100.00;98109.19;10203546;28;20509;-65
2021/12/28 12:31:02;;;;;;;3.60;3.30;;;;;;;10.19;100.00;98090.25;10206000;28;20055;-64
2021/12/28 12:36:05;;;;;;;3.75;3.33;;;;;;;10.23;100.00;98096.03;10210944;28;20050;-68
2021/12/28 12:41:20;;;;;;;4.10;3.80;;;;;;;10.30;100.00;98074.88;10218094;28;20059;-65
2021/12/28 12:46:24;;;;;;;4.38;3.97;;;;;;;10.31;100.00;98071.22;10201653;28;20090;-64
2021/12/28 12:51:29;;;;;;;3.08;2.78;;;;;;;10.35;100.00;98067.25;10198979;28;20062;-64
2021/12/28 12:56:54;;;;;;;3.28;2.97;;;;;;;10.20;100.00;98054.66;10208603;28;20057;-63
2021/12/28 13:02:27;;;;;;;2.97;2.70;;;;;;;10.25;100.00;98062.97;10202432;28;20129;-63
2021/12/28 13:07:32;;;;;;;3.28;3.03;;;;;;;10.30;100.00;98058.94;10206018;28;20218;-64
2021/12/28 13:12:34;;;;;;;;;;;;;;;10.32;100.00;98063.06;10218425;28;20054;-64
2021/12/28 13:17:40;;;;;;;3.72;2.90;;;;;;;10.28;100.00;98048.47;10177272;28;20397;-64
2021/12/28 13:22:58;;;;;;;2.38;2.17;;;;;;;10.33;100.00;98010.72;10198082;28;20138;-63
2021/12/28 13:28:02;;;;;;;1.92;1.77;;;;;;;10.33;100.00;98013.38;10198897;28;20066;-63
2021/12/28 13:33:06;;;;;;;;;;;;;;;10.35;100.00;98009.56;10185505;28;20547;-64
2021/12/28 13:38:12;;;;;;;2.78;1.50;;;;;;;10.30;100.00;97995.94;10202134;28;19922;-63
2021/12/28 13:43:29;;;;;;;1.58;1.48;;;;;;;10.30;100.00;97980.00;10201087;28;20047;-63
2021/12/28 13:48:36;;;;;;;2.55;1.60;;;;;;;10.32;100.00;97972.66;10203272;28;20058;-63
2021/12/28 13:53:43;;;;;;;1.67;1.52;;;;;;;10.31;100.00;97962.19;10199014;28;20051;-65
2021/12/28 13:58:53;;;;;;;3.53;1.85;;;;;;;10.27;100.00;97948.44;10207597;28;20050;-65
2021/12/28 14:03:56;;;;;;;2.97;1.17;;;;;;;10.28;100.00;97966.03;10212108;28;20109;-64
2021/12/28 14:09:03;;;;;;;1.60;0.98;;;;;;;10.29;100.00;97977.53;10215322;28;20159;-64
2021/12/28 14:14:17;;;;;;;5.57;1.63;;;;;;;10.25;100.00;97985.84;10217752;28;20193;-65
2021/12/28 14:19:20;;;;;;;2.20;0.90;;;;;;;10.26;100.00;97984.81;10220118;28;20517;-65
2021/12/28 14:24:26;;;;;;;2.72;1.73;;;;;;;10.22;100.00;97991.53;10220840;28;20592;-65
2021/12/28 14:29:31;;;;;;;4.15;1.50;;;;;;;10.24;100.00;98007.31;10217940;28;20473;-65
2021/12/28 14:34:45;;;;;;;4.72;1.08;;;;;;;10.24;100.00;98026.72;10217514;28;20122;-64
2021/12/28 14:39:49;;;;;;;2.33;1.08;;;;;;;10.24;100.00;98040.03;10218231;28;20299;-65
2021/12/28 14:44:57;;;;;;;2.67;1.20;;;;;;;10.37;98.89;98041.31;10220926;28;20280;-65
2021/12/28 14:50:07;;;;;;;3.85;1.42;;;;;;;10.53;95.46;98054.50;10213574;28;20039;-64
2021/12/28 14:55:14;;;;;;;2.05;0.70;;;;;;;10.83;92.32;98057.25;10220734;28;20059;-65
2021/12/28 15:00:29;;;;;;;3.55;0.80;;;;;;;10.87;90.57;98079.84;10216431;28;20059;-65
2021/12/28 15:05:37;;;;;;;3.63;0.98;;;;;;;10.77;90.64;98092.56;10198295;28;22751;-65
2021/12/28 15:10:41;;;;;;;4.53;1.30;;;;;;;10.66;90.99;98103.63;10215414;28;20122;-65
2021/12/28 15:15:43;;;;;;;5.82;2.22;;;;;;;10.57;90.26;98119.66;10217281;28;20053;-65
2021/12/28 15:20:46;;;;;;;4.78;1.52;;;;;;;10.46;88.28;98140.50;10217536;28;20053;-64
2021/12/28 15:25:50;;;;;;;3.47;1.55;;;;;;;10.34;86.52;98124.09;10201873;28;20051;-64
2021/12/28 15:30:51;;;;;;;2.67;1.17;;;;;;;10.38;85.11;98133.38;10217286;28;20450;-65
2021/12/28 15:35:52;;;;;;;9.23;3.55;;;;;;;10.32;85.23;98142.03;10214544;28;20054;-65
2021/12/28 15:40:55;;;;;;;5.85;1.77;;;;;;;10.32;85.08;98144.69;10217579;28;20047;-65
2021/12/28 15:45:57;;;;;;;6.25;2.20;;;;;;;10.27;83.84;98140.72;10213097;28;20541;-65
2021/12/28 15:50:58;;;;;;;6.15;1.70;;;;;;;10.35;83.40;98115.13;10205668;28;20047;-64
2021/12/28 15:56:01;;;;;;;8.95;2.33;;;;;;;10.30;84.03;98167.94;10206888;28;20397;-66
2021/12/28 16:01:03;;;;;;;5.40;2.22;;;;;;;10.23;84.05;98167.81;10200565;28;20043;-67
2021/12/28 16:06:04;;;;;;;9.27;2.25;;;;;;;10.13;84.27;98181.31;10194003;28;20047;-67
2021/12/28 16:11:07;;;;;;;5.95;1.77;;;;;;;10.01;85.05;98172.03;10207798;28;20469;-66
2021/12/28 16:16:09;;;;;;;10.98;3.17;;;;;;;9.99;86.09;98176.72;10202816;28;20052;-65
2021/12/28 16:21:11;;;;;;;9.75;2.60;;;;;;;9.88;86.47;98168.09;10208549;28;20046;-64
2021/12/28 16:26:17;;;;;;;9.02;3.03;;;;;;;9.78;86.57;98175.44;10189074;28;20138;-65
2021/12/28 16:31:20;;;;;;;8.55;2.55;;;;;;;9.69;85.38;98181.75;10192773;28;20062;-65
2021/12/28 16:36:22;;;;;;;7.72;2.80;;;;;;;9.60;84.31;98190.75;10207323;28;20121;-65
2021/12/28 16:41:26;;;;;;;6.30;2.53;;;;;;;9.45;80.54;98183.44;10205863;28;20124;-64
2021/12/28 16:46:28;;;;;;;6.90;3.70;;;;;;;9.42;77.09;98199.69;10187302;28;20059;-63
2021/12/28 16:51:29;;;;;;;5.45;1.90;;;;;;;9.35;75.95;98219.94;10204089;28;20066;-64
2021/12/28 16:56:31;;;;;;;7.35;2.58;;;;;;;9.28;75.84;98224.28;10206807;28;20047;-67
2021/12/28 17:01:33;;;;;;;7.38;2.45;;;;;;;9.16;75.14;98235.22;10200398;28;20061;-64
2021/12/28 17:06:35;;;;;;;7.65;2.47;;;;;;;9.07;75.59;98236.19;10208318;28;20047;-63
2021/12/28 17:11:37;;;;;;;8.30;2.78;;;;;;;8.95;75.39;98232.19;10184197;28;20051;-65
2021/12/28 17:16:38;;;;;;;11.35;2.58;;;;;;;8.91;74.25;98225.53;10215995;28;20046;-65
2021/12/28 17:21:40;;;;;;;9.40;3.00;;;;;;;8.85;74.52;98209.25;10216756;28;20051;-65
2021/12/28 17:26:41;;;;;;;10.18;2.45;;;;;;;8.83;74.91;98219.22;10226058;28;20145;-64
2021/12/28 17:31:43;;;;;;;8.43;3.30;;;;;;;8.82;73.87;98241.44;10206866;28;20297;-64
2021/12/28 17:36:46;;;;;;;5.93;2.72;;;;;;;8.83;74.28;98237.78;10202945;28;20524;-63
2021/12/28 17:41:47;;;;;;;12.90;3.53;;;;;;;8.77;73.76;98233.13;10200310;28;20065;-63
2021/12/28 17:46:49;;;;;;;8.02;2.70;;;;;;;8.78;73.99;98239.25;10201157;28;20074;-63
2021/12/28 17:51:51;;;;;;;12.45;3.30;;;;;;;8.75;74.80;98232.47;10202740;28;20426;-63
2021/12/28 17:56:52;;;;;;;10.15;3.35;;;;;;;8.72;74.42;98238.09;10209910;28;20060;-64
2021/12/28 18:01:54;;;;;;;12.07;3.67;;;;;;;8.75;75.62;98229.81;10208862;28;20637;-63
2021/12/28 18:06:56;;;;;;;12.07;3.70;;;;;;;8.82;76.85;98219.38;10180625;28;20054;-65
2021/12/28 18:11:57;;;;;;;9.73;3.08;;;;;;;8.81;77.41;98223.88;10205545;28;20162;-63
2021/12/28 18:16:59;;;;;;;10.80;3.15;;;;;;;8.78;77.99;98228.66;10205852;28;20329;-64
2021/12/28 18:22:00;;;;;;;10.43;3.25;;;;;;;8.79;78.16;98220.53;10205747;28;20418;-63
2021/12/28 18:27:03;;;;;;;13.32;3.33;;;;;;;8.76;78.48;98210.25;10212876;28;20536;-64
2021/12/28 18:32:06;;;;;;;11.88;2.85;;;;;;;8.87;79.32;98210.94;10206358;28;20055;-64
2021/12/28 18:37:09;;;;;;;8.38;2.60;;;;;;;8.86;80.41;98210.13;10183412;28;20043;-63
2021/12/28 18:42:11;;;;;;;9.88;2.92;;;;;;;8.85;80.99;98206.59;10199979;28;20063;-62
2021/12/28 18:47:15;;;;;;;6.70;3.15;;;;;;;8.88;82.06;98199.34;10184870;28;20067;-62
2021/12/28 18:52:16;;;;;;;10.40;3.15;;;;;;;8.82;82.43;98183.06;10200815;28;20055;-62
2021/12/28 18:57:19;;;;;;;9.73;3.08;;;;;;;8.78;83.58;98188.84;10202809;28;20055;-61
2021/12/28 19:02:21;;;;;;;9.57;3.30;;;;;;;8.87;84.33;98173.78;10200358;28;20062;-61
2021/12/28 19:07:23;;;;;;;12.65;3.60;;;;;;;8.88;84.71;98178.13;10198130;28;20055;-61
2021/12/28 19:12:24;;;;;;;10.80;3.30;;;;;;;8.90;85.80;98170.81;10201171;28;20059;-61
2021/12/28 19:17:26;;;;;;;10.35;3.08;;;;;;;8.77;86.73;98153.56;10201995;28;20050;-62
2021/12/28 19:22:27;;;;;;;8.85;2.88;;;;;;;8.81;87.35;98162.00;10199391;28;20354;-62
2021/12/28 19:27:30;;;;;;;12.07;2.92;;;;;;;8.79;87.93;98172.78;10200373;28;20051;-62
2021/12/28 19:32:31;;;;;;;16.35;4.38;;;;;;;8.76;89.91;98178.41;10201868;28;20058;-63
2021/12/28 19:37:32;;;;;;;11.32;3.45;;;;;;;8.75;89.73;98184.72;10203390;28;20055;-62
2021/12/28 19:42:34;;;;;;;10.60;3.47;;;;;;;8.83;89.99;98181.25;10214335;28;20055;-62
2021/12/28 19:47:35;;;;;;;8.75;3.72;;;;;;;8.66;91.83;98167.09;10208626;28;20367;-62
2021/12/28 19:52:38;;;;;;;11.07;3.33;;;;;;;8.68;93.26;98186.38;10206713;28;20673;-64
2021/12/28 19:57:40;;;;;;;13.18;3.70;;;;;;;8.63;94.14;98199.25;10214906;28;20659;-63
2021/12/28 20:02:42;;;;;;;9.32;3.40;;;;;;;8.60;94.62;98186.31;10203713;28;20069;-62
2021/12/28 20:07:45;;;;;;;12.85;3.90;;;;;;;8.64;94.87;98182.38;10191299;28;20046;-63
2021/12/28 20:12:47;;;;;;;14.23;3.42;;;;;;;8.70;95.17;98197.63;10204998;28;20133;-63
2021/12/28 20:17:51;;;;;;;9.30;3.72;;;;;;;8.72;95.24;98203.63;10207360;28;20057;-63
2021/12/28 20:22:53;;;;;;;12.18;4.07;;;;;;;8.77;95.03;98203.13;10193647;28;20494;-63
2021/12/28 20:27:56;;;;;;;9.65;3.47;;;;;;;8.83;94.98;98210.44;10203696;28;20547;-63
2021/12/28 20:32:57;;;;;;;9.75;3.85;;;;;;;8.77;95.71;98214.56;10208437;28;20130;-63
2021/12/28 20:37:59;;;;;;;12.73;4.38;;;;;;;8.78;96.04;98223.34;10202785;28;20154;-63
2021/12/28 20:43:03;;;;;;;11.45;3.50;;;;;;;8.74;95.93;98228.16;10204404;28;20573;-63
2021/12/28 20:48:05;;;;;;;10.60;2.90;;;;;;;8.78;96.64;98239.25;10201841;28;20051;-63
2021/12/28 20:53:07;;;;;;;11.85;3.67;;;;;;;8.83;96.39;98255.53;10204335;28;20055;-63
2021/12/28 20:58:10;;;;;;;12.00;3.05;;;;;;;8.92;96.67;98272.31;10205464;28;20077;-63
2021/12/28 21:03:12;;;;;;;9.35;2.78;;;;;;;9.05;96.09;98282.47;10202306;28;20041;-63
2021/12/28 21:08:14;;;;;;;7.68;2.85;;;;;;;9.07;95.89;98291.94;10206909;28;20445;-62
2021/12/28 21:13:17;;;;;;;12.80;3.80;;;;;;;9.17;95.64;98302.38;10202595;28;20765;-63
2021/12/28 21:18:27;;;;;;;13.13;3.65;;;;;;;9.15;95.65;98313.16;10202837;28;20050;-63
2021/12/28 21:23:28;;;;;;;8.88;2.80;;;;;;;9.25;94.52;98322.81;10203774;28;20066;-63
2021/12/28 21:28:30;;;;;;;8.02;3.17;;;;;;;9.18;95.33;98327.94;10202635;28;20061;-63
2021/12/28 21:33:31;;;;;;;6.78;3.40;;;;;;;9.15;95.20;98326.44;10200502;28;20142;-63
2021/12/28 21:38:33;;;;;;;12.40;4.13;;;;;;;9.25;95.27;98336.09;10200829;28;20048;-63
2021/12/28 21:43:34;;;;;;;7.82;2.63;;;;;;;9.15;95.99;98334.41;10202838;28;20055;-63
2021/12/28 21:48:36;;;;;;;8.27;2.85;;;;;;;9.15;96.43;98357.47;10200751;28;20437;-64
2021/12/28 21:53:37;;;;;;;6.63;1.75;;;;;;;9.25;96.71;98378.56;10199082;28;20058;-64
2021/12/28 21:58:39;;;;;;;7.25;2.40;;;;;;;9.17;97.80;98374.91;10182058;28;20047;-63
2021/12/28 22:03:40;;;;;;;11.43;3.17;;;;;;;9.17;97.88;98377.56;10184629;28;20055;-63
2021/12/28 22:08:41;;;;;;;6.35;1.90;;;;;;;9.25;98.63;98383.88;10201818;28;20526;-63
2021/12/28 22:13:43;;;;;;;8.88;4.35;;;;;;;9.24;98.20;98387.53;10204055;28;20413;-64
2021/12/28 22:18:44;;;;;;;4.85;1.75;;;;;;;9.18;97.94;98405.75;10207457;28;20052;-65
2021/12/28 22:23:46;;;;;;;4.43;1.70;;;;;;;9.22;99.43;98408.94;10283957;23;20399;-60
2021/12/28 22:28:47;;;;;;;3.95;1.80;;;;;;;9.21;98.73;98415.22;10275634;28;20142;-59
2021/12/28 22:33:48;;;;;;;2.95;0.80;;;;;;;9.15;98.62;98413.22;10240407;28;20054;-60
2021/12/28 22:38:52;;;;;;;4.43;1.15;;;;;;;9.06;100.00;98425.63;10239539;28;20689;-60
2021/12/28 22:43:53;;;;;;;3.30;1.05;;;;;;;9.02;100.00;98416.28;10232230;28;20046;-61
2021/12/28 22:48:54;;;;;;;3.90;0.85;;;;;;;9.07;100.00;98424.63;10231159;28;20043;-61
2021/12/28 22:53:56;;;;;;;3.90;0.93;;;;;;;9.13;100.00;98434.63;10244205;28;20148;-62
2021/12/28 22:58:58;;;;;;;5.90;1.05;;;;;;;9.03;100.00;98436.56;10228170;28;20167;-60
2021/12/28 23:03:59;;;;;;;2.08;0.88;;;;;;;9.10;100.00;98448.19;10233081;28;20129;-60
2021/12/28 23:09:07;;;;;;;3.97;0.60;;;;;;;9.10;100.00;98458.00;10235266;28;20666;-61
2021/12/28 23:14:11;;;;;;;4.32;0.82;;;;;;;9.16;100.00;98471.47;10236899;28;20124;-61
2021/12/28 23:19:13;;;;;;;2.85;0.80;;;;;;;9.16;100.00;98487.38;10236812;28;20079;-60
2021/12/28 23:24:15;;;;;;;1.83;0.65;;;;;;;9.17;100.00;98498.81;10227476;28;20153;-61
2021/12/28 23:29:18;;;;;;;2.97;1.10;;;;;;;9.20;100.00;98507.31;10239445;28;20842;-60
2021/12/28 23:34:21;;;;;;;1.88;0.45;;;;;;;9.23;99.47;98508.00;10235576;28;20047;-61